sensor_id;sensor_type;location;lat;lon;timestamp;temperature;humidity
19652;DHT22;9974;52.146;14.668;2022-08-03T00:04:09;17.60;99.90
19652;DHT22;9974;52.146;14.668;2022-08-03T00:06:36;18.00;99.90
19652;DHT22;9974;52.146;14.668;2022-08-03T00:09:03;17.70;99.90
19652;DHT22;9974;52.146;14.668;2022-08-03T00:11:30;17.40;99.90
19652;DHT22;9974;52.146;14.668;2022-08-03T00:18:49;17.40;99.90
19652;DHT22;9974;52.146;14.668;2022-08-03T00:30:59;17.60;99.90
19652;DHT22;9974;52.146;14.668;2022-08-03T00:35:51;17.00;99.90
19652;DHT22;9974;52.146;14.668;2022-08-03T00:38:18;17.50;99.90
19652;DHT22;9974;52.146;14.668;2022-08-03T00:40:44;17.00;99.90
19652;DHT22;9974;52.146;14.668;2022-08-03T00:45:38;17.10;99.90
19652;DHT22;9974;52.146;14.668;2022-08-03T00:48:07;17.40;99.90
19652;DHT22;9974;52.146;14.668;2022-08-03T00:50:38;17.10;99.90
19652;DHT22;9974;52.146;14.668;2022-08-03T00:53:06;17.00;99.90
19652;DHT22;9974;52.146;14.668;2022-08-03T00:55:33;17.00;99.90
19652;DHT22;9974;52.146;14.668;2022-08-03T00:58:02;17.30;99.90
19652;DHT22;9974;52.146;14.668;2022-08-03T01:00:33;16.20;99.90
19652;DHT22;9974;52.146;14.668;2022-08-03T01:03:07;16.60;99.90
19652;DHT22;9974;52.146;14.668;2022-08-03T01:05:40;17.00;99.90
19652;DHT22;9974;52.146;14.668;2022-08-03T01:08:25;16.90;99.90
19652;DHT22;9974;52.146;14.668;2022-08-03T01:11:09;16.90;99.90
19652;DHT22;9974;52.146;14.668;2022-08-03T01:13:47;16.90;99.90
19652;DHT22;9974;52.146;14.668;2022-08-03T01:16:29;16.90;99.90
19652;DHT22;9974;52.146;14.668;2022-08-03T01:22:30;17.10;99.90
19652;DHT22;9974;52.146;14.668;2022-08-03T01:25:32;16.80;99.90
19652;DHT22;9974;52.146;14.668;2022-08-03T01:30:52;16.70;99.90
19652;DHT22;9974;52.146;14.668;2022-08-03T01:33:27;16.70;99.90
19652;DHT22;9974;52.146;14.668;2022-08-03T01:36:01;16.40;99.90
19652;DHT22;9974;52.146;14.668;2022-08-03T01:38:32;16.40;99.90
19652;DHT22;9974;52.146;14.668;2022-08-03T01:41:05;16.40;99.90
19652;DHT22;9974;52.146;14.668;2022-08-03T01:43:32;16.50;99.90
19652;DHT22;9974;52.146;14.668;2022-08-03T01:46:01;15.90;99.90
19652;DHT22;9974;52.146;14.668;2022-08-03T01:48:27;16.20;99.90
19652;DHT22;9974;52.146;14.668;2022-08-03T01:50:54;16.30;99.90
19652;DHT22;9974;52.146;14.668;2022-08-03T01:53:21;16.10;99.90
19652;DHT22;9974;52.146;14.668;2022-08-03T01:55:48;16.00;99.90
19652;DHT22;9974;52.146;14.668;2022-08-03T01:58:18;16.20;99.90
19652;DHT22;9974;52.146;14.668;2022-08-03T02:00:45;16.10;99.90
19652;DHT22;9974;52.146;14.668;2022-08-03T02:03:12;16.20;99.90
19652;DHT22;9974;52.146;14.668;2022-08-03T02:08:08;16.10;99.90
19652;DHT22;9974;52.146;14.668;2022-08-03T02:10:36;16.10;99.90
19652;DHT22;9974;52.146;14.668;2022-08-03T02:13:04;16.10;99.90
19652;DHT22;9974;52.146;14.668;2022-08-03T02:15:33;16.10;99.90
19652;DHT22;9974;52.146;14.668;2022-08-03T02:18:02;16.10;99.90
19652;DHT22;9974;52.146;14.668;2022-08-03T02:20:30;15.90;99.90
19652;DHT22;9974;52.146;14.668;2022-08-03T02:28:03;15.80;99.90
19652;DHT22;9974;52.146;14.668;2022-08-03T02:30:37;15.80;99.90
19652;DHT22;9974;52.146;14.668;2022-08-03T02:33:06;15.70;99.90
19652;DHT22;9974;52.146;14.668;2022-08-03T02:35:38;15.80;99.90
19652;DHT22;9974;52.146;14.668;2022-08-03T02:38:07;15.70;99.90
19652;DHT22;9974;52.146;14.668;2022-08-03T02:40:35;15.40;99.90
19652;DHT22;9974;52.146;14.668;2022-08-03T02:43:06;15.60;99.90
19652;DHT22;9974;52.146;14.668;2022-08-03T02:45:35;15.60;99.90
19652;DHT22;9974;52.146;14.668;2022-08-03T02:48:07;15.20;99.90
19652;DHT22;9974;52.146;14.668;2022-08-03T02:50:35;15.90;99.90
19652;DHT22;9974;52.146;14.668;2022-08-03T02:53:02;15.40;99.90
19652;DHT22;9974;52.146;14.668;2022-08-03T02:55:29;15.60;99.90
19652;DHT22;9974;52.146;14.668;2022-08-03T02:57:58;15.80;99.90
19652;DHT22;9974;52.146;14.668;2022-08-03T03:00:25;15.60;99.90
19652;DHT22;9974;52.146;14.668;2022-08-03T03:02:51;15.00;99.90
19652;DHT22;9974;52.146;14.668;2022-08-03T03:05:17;15.30;99.90
19652;DHT22;9974;52.146;14.668;2022-08-03T03:07:43;15.30;99.90
19652;DHT22;9974;52.146;14.668;2022-08-03T03:10:09;15.60;99.90
19652;DHT22;9974;52.146;14.668;2022-08-03T03:12:37;15.10;99.90
19652;DHT22;9974;52.146;14.668;2022-08-03T03:15:06;15.30;99.90
19652;DHT22;9974;52.146;14.668;2022-08-03T03:19:59;14.90;99.90
19652;DHT22;9974;52.146;14.668;2022-08-03T03:22:26;15.20;99.90
19652;DHT22;9974;52.146;14.668;2022-08-03T03:24:53;15.60;99.90
19652;DHT22;9974;52.146;14.668;2022-08-03T03:27:20;15.20;99.90
19652;DHT22;9974;52.146;14.668;2022-08-03T03:29:47;15.60;99.90
19652;DHT22;9974;52.146;14.668;2022-08-03T03:32:13;15.30;99.90
19652;DHT22;9974;52.146;14.668;2022-08-03T03:34:39;15.60;99.90
19652;DHT22;9974;52.146;14.668;2022-08-03T03:42:00;15.80;99.90
19652;DHT22;9974;52.146;14.668;2022-08-03T03:44:28;13.90;99.90
19652;DHT22;9974;52.146;14.668;2022-08-03T03:46:55;15.10;99.90
19652;DHT22;9974;52.146;14.668;2022-08-03T03:49:21;15.70;99.90
19652;DHT22;9974;52.146;14.668;2022-08-03T03:54:16;15.70;99.90
19652;DHT22;9974;52.146;14.668;2022-08-03T04:09:31;15.20;99.90
19652;DHT22;9974;52.146;14.668;2022-08-03T04:12:18;15.40;99.90
19652;DHT22;9974;52.146;14.668;2022-08-03T04:14:47;15.40;99.90
19652;DHT22;9974;52.146;14.668;2022-08-03T04:17:14;15.80;99.90
19652;DHT22;9974;52.146;14.668;2022-08-03T04:19:45;15.50;99.90
19652;DHT22;9974;52.146;14.668;2022-08-03T04:22:17;16.20;99.90
19652;DHT22;9974;52.146;14.668;2022-08-03T04:24:54;16.00;99.90
19652;DHT22;9974;52.146;14.668;2022-08-03T04:27:26;16.10;99.90
19652;DHT22;9974;52.146;14.668;2022-08-03T04:29:55;16.60;99.90
19652;DHT22;9974;52.146;14.668;2022-08-03T04:32:22;16.30;99.90
19652;DHT22;9974;52.146;14.668;2022-08-03T04:34:51;16.60;99.90
19652;DHT22;9974;52.146;14.668;2022-08-03T04:37:40;16.90;99.90
19652;DHT22;9974;52.146;14.668;2022-08-03T04:40:17;16.50;99.90
19652;DHT22;9974;52.146;14.668;2022-08-03T04:42:46;16.50;99.90
19652;DHT22;9974;52.146;14.668;2022-08-03T04:45:14;16.60;99.90
19652;DHT22;9974;52.146;14.668;2022-08-03T04:50:07;16.70;99.90
19652;DHT22;9974;52.146;14.668;2022-08-03T04:52:34;16.70;99.90
19652;DHT22;9974;52.146;14.668;2022-08-03T04:55:00;16.90;99.90
19652;DHT22;9974;52.146;14.668;2022-08-03T04:59:53;16.80;99.90
19652;DHT22;9974;52.146;14.668;2022-08-03T05:02:19;17.00;99.90
19652;DHT22;9974;52.146;14.668;2022-08-03T05:07:12;17.10;99.90
19652;DHT22;9974;52.146;14.668;2022-08-03T05:09:38;17.10;99.90
19652;DHT22;9974;52.146;14.668;2022-08-03T05:12:05;17.20;99.90
19652;DHT22;9974;52.146;14.668;2022-08-03T05:14:32;17.40;99.90
19652;DHT22;9974;52.146;14.668;2022-08-03T05:16:58;17.10;99.90
19652;DHT22;9974;52.146;14.668;2022-08-03T05:21:50;17.20;99.90
19652;DHT22;9974;52.146;14.668;2022-08-03T05:26:41;17.70;99.90
19652;DHT22;9974;52.146;14.668;2022-08-03T05:29:07;17.80;99.90
19652;DHT22;9974;52.146;14.668;2022-08-03T05:33:59;17.70;99.90
19652;DHT22;9974;52.146;14.668;2022-08-03T05:38:51;18.00;99.90
19652;DHT22;9974;52.146;14.668;2022-08-03T05:43:43;17.80;99.90
19652;DHT22;9974;52.146;14.668;2022-08-03T05:48:35;17.40;99.90
19652;DHT22;9974;52.146;14.668;2022-08-03T05:51:01;17.80;99.90
19652;DHT22;9974;52.146;14.668;2022-08-03T05:55:54;17.90;99.90
19652;DHT22;9974;52.146;14.668;2022-08-03T06:00:46;18.00;99.90
19652;DHT22;9974;52.146;14.668;2022-08-03T06:03:12;17.90;99.90
19652;DHT22;9974;52.146;14.668;2022-08-03T06:05:37;18.50;99.90
19652;DHT22;9974;52.146;14.668;2022-08-03T06:17:49;19.40;99.90
19652;DHT22;9974;52.146;14.668;2022-08-03T06:20:19;19.00;99.90
19652;DHT22;9974;52.146;14.668;2022-08-03T06:22:46;19.40;99.90
19652;DHT22;9974;52.146;14.668;2022-08-03T06:25:13;19.90;99.90
19652;DHT22;9974;52.146;14.668;2022-08-03T06:30:06;20.00;99.90
19652;DHT22;9974;52.146;14.668;2022-08-03T06:32:32;20.00;99.90
19652;DHT22;9974;52.146;14.668;2022-08-03T06:34:59;20.30;99.90
19652;DHT22;9974;52.146;14.668;2022-08-03T06:37:25;21.20;99.90
19652;DHT22;9974;52.146;14.668;2022-08-03T06:42:18;20.70;99.90
19652;DHT22;9974;52.146;14.668;2022-08-03T06:52:02;21.10;99.90
19652;DHT22;9974;52.146;14.668;2022-08-03T06:54:28;21.90;99.90
19652;DHT22;9974;52.146;14.668;2022-08-03T07:13:57;22.90;99.90
19652;DHT22;9974;52.146;14.668;2022-08-03T07:18:48;23.00;99.90
19652;DHT22;9974;52.146;14.668;2022-08-03T07:23:41;23.40;99.90
19652;DHT22;9974;52.146;14.668;2022-08-03T07:28:33;23.90;99.90
19652;DHT22;9974;52.146;14.668;2022-08-03T07:30:58;24.10;99.90
19652;DHT22;9974;52.146;14.668;2022-08-03T07:43:08;25.00;99.90
19652;DHT22;9974;52.146;14.668;2022-08-03T07:50:26;25.40;99.90
19652;DHT22;9974;52.146;14.668;2022-08-03T07:52:52;25.70;99.90
19652;DHT22;9974;52.146;14.668;2022-08-03T07:55:22;25.80;99.90
19652;DHT22;9974;52.146;14.668;2022-08-03T07:58:09;25.90;99.90
19652;DHT22;9974;52.146;14.668;2022-08-03T08:08:02;26.20;99.90
19652;DHT22;9974;52.146;14.668;2022-08-03T08:10:28;26.30;99.90
19652;DHT22;9974;52.146;14.668;2022-08-03T08:17:49;26.90;95.70
19652;DHT22;9974;52.146;14.668;2022-08-03T08:20:18;26.90;97.00
19652;DHT22;9974;52.146;14.668;2022-08-03T08:25:11;27.00;96.20
19652;DHT22;9974;52.146;14.668;2022-08-03T08:27:45;27.00;98.30
19652;DHT22;9974;52.146;14.668;2022-08-03T08:30:14;27.20;94.50
19652;DHT22;9974;52.146;14.668;2022-08-03T08:32:44;27.40;94.40
19652;DHT22;9974;52.146;14.668;2022-08-03T08:35:10;27.60;93.90
19652;DHT22;9974;52.146;14.668;2022-08-03T08:37:37;27.70;95.20
19652;DHT22;9974;52.146;14.668;2022-08-03T08:40:04;27.70;92.00
19652;DHT22;9974;52.146;14.668;2022-08-03T08:42:31;27.90;92.10
19652;DHT22;9974;52.146;14.668;2022-08-03T08:47:27;28.30;87.00
19652;DHT22;9974;52.146;14.668;2022-08-03T08:49:54;28.40;86.00
19652;DHT22;9974;52.146;14.668;2022-08-03T08:52:24;28.50;84.60
19652;DHT22;9974;52.146;14.668;2022-08-03T08:54:55;28.60;81.90
19652;DHT22;9974;52.146;14.668;2022-08-03T08:57:29;28.70;75.60
19652;DHT22;9974;52.146;14.668;2022-08-03T09:02:27;28.80;76.90
19652;DHT22;9974;52.146;14.668;2022-08-03T09:04:54;29.00;70.80
19652;DHT22;9974;52.146;14.668;2022-08-03T09:09:47;29.10;71.90
19652;DHT22;9974;52.146;14.668;2022-08-03T09:12:13;29.00;70.80
19652;DHT22;9974;52.146;14.668;2022-08-03T09:14:39;29.40;73.30
19652;DHT22;9974;52.146;14.668;2022-08-03T09:19:32;29.50;74.70
19652;DHT22;9974;52.146;14.668;2022-08-03T09:22:16;29.40;74.60
19652;DHT22;9974;52.146;14.668;2022-08-03T09:25:00;29.60;72.90
19652;DHT22;9974;52.146;14.668;2022-08-03T09:27:28;29.60;73.50
19652;DHT22;9974;52.146;14.668;2022-08-03T09:29:54;29.50;72.30
19652;DHT22;9974;52.146;14.668;2022-08-03T09:32:22;29.60;70.10
19652;DHT22;9974;52.146;14.668;2022-08-03T09:34:51;29.60;69.90
19652;DHT22;9974;52.146;14.668;2022-08-03T09:37:19;29.70;70.20
19652;DHT22;9974;52.146;14.668;2022-08-03T09:39:47;29.50;71.20
19652;DHT22;9974;52.146;14.668;2022-08-03T09:42:17;29.80;70.30
19652;DHT22;9974;52.146;14.668;2022-08-03T09:44:48;29.90;71.00
19652;DHT22;9974;52.146;14.668;2022-08-03T09:47:26;29.80;72.00
19652;DHT22;9974;52.146;14.668;2022-08-03T09:50:03;30.10;70.80
19652;DHT22;9974;52.146;14.668;2022-08-03T09:52:35;30.20;72.80
19652;DHT22;9974;52.146;14.668;2022-08-03T09:55:09;30.20;71.70
19652;DHT22;9974;52.146;14.668;2022-08-03T09:57:36;30.40;69.40
19652;DHT22;9974;52.146;14.668;2022-08-03T10:00:13;30.30;68.00
19652;DHT22;9974;52.146;14.668;2022-08-03T10:02:41;30.20;68.00
19652;DHT22;9974;52.146;14.668;2022-08-03T10:05:09;30.40;69.40
19652;DHT22;9974;52.146;14.668;2022-08-03T10:07:44;30.50;67.20
19652;DHT22;9974;52.146;14.668;2022-08-03T10:10:12;30.70;68.40
19652;DHT22;9974;52.146;14.668;2022-08-03T10:15:05;30.70;65.70
19652;DHT22;9974;52.146;14.668;2022-08-03T10:17:31;30.50;66.40
19652;DHT22;9974;52.146;14.668;2022-08-03T10:22:31;30.70;66.90
19652;DHT22;9974;52.146;14.668;2022-08-03T10:25:03;30.60;67.60
19652;DHT22;9974;52.146;14.668;2022-08-03T10:27:34;30.70;66.70
19652;DHT22;9974;52.146;14.668;2022-08-03T10:30:04;30.80;69.50
19652;DHT22;9974;52.146;14.668;2022-08-03T10:32:40;30.90;65.90
19652;DHT22;9974;52.146;14.668;2022-08-03T10:35:13;31.10;65.10
19652;DHT22;9974;52.146;14.668;2022-08-03T10:37:43;31.00;63.60
19652;DHT22;9974;52.146;14.668;2022-08-03T10:40:14;30.90;66.90
19652;DHT22;9974;52.146;14.668;2022-08-03T10:42:42;30.90;66.10
19652;DHT22;9974;52.146;14.668;2022-08-03T10:45:17;31.10;66.70
19652;DHT22;9974;52.146;14.668;2022-08-03T10:47:46;31.20;65.60
19652;DHT22;9974;52.146;14.668;2022-08-03T10:52:58;31.60;64.10
19652;DHT22;9974;52.146;14.668;2022-08-03T10:55:40;31.60;64.00
19652;DHT22;9974;52.146;14.668;2022-08-03T10:58:47;32.00;63.00
19652;DHT22;9974;52.146;14.668;2022-08-03T11:01:14;32.20;61.40
19652;DHT22;9974;52.146;14.668;2022-08-03T11:06:22;32.40;61.20
19652;DHT22;9974;52.146;14.668;2022-08-03T11:11:36;32.80;61.40
19652;DHT22;9974;52.146;14.668;2022-08-03T11:14:09;33.10;60.70
19652;DHT22;9974;52.146;14.668;2022-08-03T11:16:40;33.40;59.70
19652;DHT22;9974;52.146;14.668;2022-08-03T11:19:13;33.60;60.50
19652;DHT22;9974;52.146;14.668;2022-08-03T11:27:27;32.40;58.20
19652;DHT22;9974;52.146;14.668;2022-08-03T11:35:09;32.50;60.20
19652;DHT22;9974;52.146;14.668;2022-08-03T11:40:47;32.70;61.30
19652;DHT22;9974;52.146;14.668;2022-08-03T11:46:10;33.20;59.00
19652;DHT22;9974;52.146;14.668;2022-08-03T11:48:43;33.60;58.20
19652;DHT22;9974;52.146;14.668;2022-08-03T11:51:27;34.50;58.70
19652;DHT22;9974;52.146;14.668;2022-08-03T11:54:02;34.90;54.70
19652;DHT22;9974;52.146;14.668;2022-08-03T11:56:46;35.30;54.60
19652;DHT22;9974;52.146;14.668;2022-08-03T12:11:47;36.90;50.80
19652;DHT22;9974;52.146;14.668;2022-08-03T12:14:18;35.80;50.60
19652;DHT22;9974;52.146;14.668;2022-08-03T12:16:48;34.70;52.00
19652;DHT22;9974;52.146;14.668;2022-08-03T12:19:14;34.20;52.50
19652;DHT22;9974;52.146;14.668;2022-08-03T12:21:47;34.10;55.60
19652;DHT22;9974;52.146;14.668;2022-08-03T12:26:49;34.00;53.60
19652;DHT22;9974;52.146;14.668;2022-08-03T12:29:19;33.90;53.40
19652;DHT22;9974;52.146;14.668;2022-08-03T12:34:12;34.00;54.00
19652;DHT22;9974;52.146;14.668;2022-08-03T12:36:52;33.70;52.90
19652;DHT22;9974;52.146;14.668;2022-08-03T12:39:25;33.60;53.80
19652;DHT22;9974;52.146;14.668;2022-08-03T12:41:54;33.60;53.50
19652;DHT22;9974;52.146;14.668;2022-08-03T12:44:31;33.80;53.20
19652;DHT22;9974;52.146;14.668;2022-08-03T12:46:58;34.20;52.70
19652;DHT22;9974;52.146;14.668;2022-08-03T12:54:19;36.70;51.90
19652;DHT22;9974;52.146;14.668;2022-08-03T12:57:05;38.50;47.90
19652;DHT22;9974;52.146;14.668;2022-08-03T12:59:34;39.00;45.90
19652;DHT22;9974;52.146;14.668;2022-08-03T13:02:03;38.90;45.70
19652;DHT22;9974;52.146;14.668;2022-08-03T13:04:34;39.20;45.70
19652;DHT22;9974;52.146;14.668;2022-08-03T13:07:06;40.30;44.00
19652;DHT22;9974;52.146;14.668;2022-08-03T13:09:47;40.90;42.50
19652;DHT22;9974;52.146;14.668;2022-08-03T13:12:24;41.10;42.70
19652;DHT22;9974;52.146;14.668;2022-08-03T13:14:54;39.20;42.90
19652;DHT22;9974;52.146;14.668;2022-08-03T13:17:22;37.90;44.40
19652;DHT22;9974;52.146;14.668;2022-08-03T13:22:19;35.40;47.20
19652;DHT22;9974;52.146;14.668;2022-08-03T13:24:49;35.10;48.20
19652;DHT22;9974;52.146;14.668;2022-08-03T13:27:16;35.10;48.20
19652;DHT22;9974;52.146;14.668;2022-08-03T13:29:42;35.00;48.00
19652;DHT22;9974;52.146;14.668;2022-08-03T13:32:09;34.80;48.40
19652;DHT22;9974;52.146;14.668;2022-08-03T13:37:01;35.00;49.40
19652;DHT22;9974;52.146;14.668;2022-08-03T13:39:27;35.10;48.80
19652;DHT22;9974;52.146;14.668;2022-08-03T13:41:53;35.00;48.30
19652;DHT22;9974;52.146;14.668;2022-08-03T13:46:45;34.60;49.20
19652;DHT22;9974;52.146;14.668;2022-08-03T13:51:37;34.50;49.70
19652;DHT22;9974;52.146;14.668;2022-08-03T13:58:56;34.00;50.80
19652;DHT22;9974;52.146;14.668;2022-08-03T14:06:21;34.60;49.60
19652;DHT22;9974;52.146;14.668;2022-08-03T14:08:47;34.40;49.80
19652;DHT22;9974;52.146;14.668;2022-08-03T14:11:14;34.10;50.00
19652;DHT22;9974;52.146;14.668;2022-08-03T14:13:40;34.10;49.90
19652;DHT22;9974;52.146;14.668;2022-08-03T14:18:32;34.20;50.30
19652;DHT22;9974;52.146;14.668;2022-08-03T14:20:58;34.10;50.60
19652;DHT22;9974;52.146;14.668;2022-08-03T14:28:18;34.00;51.40
19652;DHT22;9974;52.146;14.668;2022-08-03T14:42:55;32.90;52.50
19652;DHT22;9974;52.146;14.668;2022-08-03T14:47:47;32.80;53.70
19652;DHT22;9974;52.146;14.668;2022-08-03T14:50:13;32.60;53.60
19652;DHT22;9974;52.146;14.668;2022-08-03T14:52:38;32.40;53.80
19652;DHT22;9974;52.146;14.668;2022-08-03T14:55:04;32.30;53.60
19652;DHT22;9974;52.146;14.668;2022-08-03T15:17:00;32.80;54.00
19652;DHT22;9974;52.146;14.668;2022-08-03T15:29:10;32.50;53.90
19652;DHT22;9974;52.146;14.668;2022-08-03T15:34:01;32.50;54.10
19652;DHT22;9974;52.146;14.668;2022-08-03T15:38:53;32.40;55.70
19652;DHT22;9974;52.146;14.668;2022-08-03T15:48:39;32.20;56.70
19652;DHT22;9974;52.146;14.668;2022-08-03T15:51:05;32.00;57.20
19652;DHT22;9974;52.146;14.668;2022-08-03T15:55:58;31.80;57.10
19652;DHT22;9974;52.146;14.668;2022-08-03T15:58:25;31.80;56.40
19652;DHT22;9974;52.146;14.668;2022-08-03T16:00:57;31.70;56.10
19652;DHT22;9974;52.146;14.668;2022-08-03T16:03:25;31.70;56.30
19652;DHT22;9974;52.146;14.668;2022-08-03T16:05:53;31.70;56.10
19652;DHT22;9974;52.146;14.668;2022-08-03T16:08:19;31.60;56.20
19652;DHT22;9974;52.146;14.668;2022-08-03T16:10:48;31.60;56.40
19652;DHT22;9974;52.146;14.668;2022-08-03T16:13:14;31.60;57.40
19652;DHT22;9974;52.146;14.668;2022-08-03T16:20:32;31.10;66.40
19652;DHT22;9974;52.146;14.668;2022-08-03T16:22:58;31.00;67.50
19652;DHT22;9974;52.146;14.668;2022-08-03T16:32:44;30.70;67.50
19652;DHT22;9974;52.146;14.668;2022-08-03T16:35:11;29.80;92.20
19652;DHT22;9974;52.146;14.668;2022-08-03T16:37:37;28.80;99.90
19652;DHT22;9974;52.146;14.668;2022-08-03T16:40:07;28.10;99.90
19652;DHT22;9974;52.146;14.668;2022-08-03T16:42:35;27.70;99.90
19652;DHT22;9974;52.146;14.668;2022-08-03T16:49:57;27.70;99.90
19652;DHT22;9974;52.146;14.668;2022-08-03T17:02:13;28.30;99.90
19652;DHT22;9974;52.146;14.668;2022-08-03T17:04:43;28.40;99.90
19652;DHT22;9974;52.146;14.668;2022-08-03T17:07:09;28.50;99.90
19652;DHT22;9974;52.146;14.668;2022-08-03T17:12:02;28.40;99.90
19652;DHT22;9974;52.146;14.668;2022-08-03T17:16:57;28.30;99.90
19652;DHT22;9974;52.146;14.668;2022-08-03T17:22:06;28.50;99.90
19652;DHT22;9974;52.146;14.668;2022-08-03T17:24:37;28.30;99.90
19652;DHT22;9974;52.146;14.668;2022-08-03T17:27:07;28.30;99.90
19652;DHT22;9974;52.146;14.668;2022-08-03T17:29:38;28.20;99.90
19652;DHT22;9974;52.146;14.668;2022-08-03T17:32:05;28.20;99.90
19652;DHT22;9974;52.146;14.668;2022-08-03T17:39:25;28.00;99.90
19652;DHT22;9974;52.146;14.668;2022-08-03T17:41:52;27.90;99.90
19652;DHT22;9974;52.146;14.668;2022-08-03T17:44:19;27.80;99.90
19652;DHT22;9974;52.146;14.668;2022-08-03T17:46:45;27.70;99.90
19652;DHT22;9974;52.146;14.668;2022-08-03T17:51:44;27.50;99.90
19652;DHT22;9974;52.146;14.668;2022-08-03T17:57:08;27.40;99.90
19652;DHT22;9974;52.146;14.668;2022-08-03T17:59:59;27.30;99.90
19652;DHT22;9974;52.146;14.668;2022-08-03T18:03:46;27.20;99.90
19652;DHT22;9974;52.146;14.668;2022-08-03T18:05:57;27.20;99.90
19652;DHT22;9974;52.146;14.668;2022-08-03T18:08:27;27.10;99.90
19652;DHT22;9974;52.146;14.668;2022-08-03T18:11:13;27.00;99.90
19652;DHT22;9974;52.146;14.668;2022-08-03T18:16:55;26.90;99.90
19652;DHT22;9974;52.146;14.668;2022-08-03T18:19:22;26.90;99.90
19652;DHT22;9974;52.146;14.668;2022-08-03T18:21:49;26.80;99.90
19652;DHT22;9974;52.146;14.668;2022-08-03T18:24:18;26.70;99.90
19652;DHT22;9974;52.146;14.668;2022-08-03T18:29:14;26.70;99.90
19652;DHT22;9974;52.146;14.668;2022-08-03T18:31:40;26.70;99.90
19652;DHT22;9974;52.146;14.668;2022-08-03T18:36:33;26.60;99.90
19652;DHT22;9974;52.146;14.668;2022-08-03T18:39:03;26.50;99.90
19652;DHT22;9974;52.146;14.668;2022-08-03T18:41:32;26.50;99.90
19652;DHT22;9974;52.146;14.668;2022-08-03T18:46:36;26.30;99.90
19652;DHT22;9974;52.146;14.668;2022-08-03T18:49:31;26.30;99.90
19652;DHT22;9974;52.146;14.668;2022-08-03T18:55:08;26.10;99.90
19652;DHT22;9974;52.146;14.668;2022-08-03T18:57:41;26.10;99.90
19652;DHT22;9974;52.146;14.668;2022-08-03T19:00:13;26.10;99.90
19652;DHT22;9974;52.146;14.668;2022-08-03T19:02:47;26.10;99.90
19652;DHT22;9974;52.146;14.668;2022-08-03T19:05:20;25.90;99.90
19652;DHT22;9974;52.146;14.668;2022-08-03T19:07:57;25.80;99.90
19652;DHT22;9974;52.146;14.668;2022-08-03T19:10:29;25.80;99.90
19652;DHT22;9974;52.146;14.668;2022-08-03T19:13:03;25.70;99.90
19652;DHT22;9974;52.146;14.668;2022-08-03T19:15:36;25.60;99.90
19652;DHT22;9974;52.146;14.668;2022-08-03T19:18:02;25.60;99.90
19652;DHT22;9974;52.146;14.668;2022-08-03T19:20:29;25.40;99.90
19652;DHT22;9974;52.146;14.668;2022-08-03T19:22:58;25.40;99.90
19652;DHT22;9974;52.146;14.668;2022-08-03T19:25:25;25.30;99.90
19652;DHT22;9974;52.146;14.668;2022-08-03T19:27:52;25.20;99.90
19652;DHT22;9974;52.146;14.668;2022-08-03T19:30:19;25.20;99.90
19652;DHT22;9974;52.146;14.668;2022-08-03T19:33:05;25.10;99.90
19652;DHT22;9974;52.146;14.668;2022-08-03T19:35:33;25.10;99.90
19652;DHT22;9974;52.146;14.668;2022-08-03T19:38:00;25.00;99.90
19652;DHT22;9974;52.146;14.668;2022-08-03T19:40:27;24.80;99.90
19652;DHT22;9974;52.146;14.668;2022-08-03T19:42:58;24.90;99.90
19652;DHT22;9974;52.146;14.668;2022-08-03T19:45:29;24.80;99.90
19652;DHT22;9974;52.146;14.668;2022-08-03T19:48:07;24.70;99.90
19652;DHT22;9974;52.146;14.668;2022-08-03T19:50:36;24.70;99.90
19652;DHT22;9974;52.146;14.668;2022-08-03T19:53:06;24.80;99.90
19652;DHT22;9974;52.146;14.668;2022-08-03T19:55:37;24.70;99.90
19652;DHT22;9974;52.146;14.668;2022-08-03T19:58:05;24.70;99.90
19652;DHT22;9974;52.146;14.668;2022-08-03T20:00:33;24.50;99.90
19652;DHT22;9974;52.146;14.668;2022-08-03T20:03:02;24.50;99.90
19652;DHT22;9974;52.146;14.668;2022-08-03T20:05:29;24.50;99.90
19652;DHT22;9974;52.146;14.668;2022-08-03T20:07:59;24.20;99.90
19652;DHT22;9974;52.146;14.668;2022-08-03T20:10:28;24.40;99.90
19652;DHT22;9974;52.146;14.668;2022-08-03T20:12:55;24.30;99.90
19652;DHT22;9974;52.146;14.668;2022-08-03T20:15:22;24.30;99.90
19652;DHT22;9974;52.146;14.668;2022-08-03T20:20:20;24.10;99.90
19652;DHT22;9974;52.146;14.668;2022-08-03T20:25:21;24.10;99.90
19652;DHT22;9974;52.146;14.668;2022-08-03T20:28:09;24.00;99.90
19652;DHT22;9974;52.146;14.668;2022-08-03T20:30:37;23.90;99.90
19652;DHT22;9974;52.146;14.668;2022-08-03T20:50:09;23.70;99.90
19652;DHT22;9974;52.146;14.668;2022-08-03T20:52:36;23.60;99.90
19652;DHT22;9974;52.146;14.668;2022-08-03T20:55:04;23.50;99.90
19652;DHT22;9974;52.146;14.668;2022-08-03T20:57:32;23.50;99.90
19652;DHT22;9974;52.146;14.668;2022-08-03T21:00:00;23.30;99.90
19652;DHT22;9974;52.146;14.668;2022-08-03T21:07:27;23.30;99.90
19652;DHT22;9974;52.146;14.668;2022-08-03T21:09:59;23.10;99.90
19652;DHT22;9974;52.146;14.668;2022-08-03T21:12:41;23.10;99.90
19652;DHT22;9974;52.146;14.668;2022-08-03T21:15:12;23.00;99.90
19652;DHT22;9974;52.146;14.668;2022-08-03T21:17:45;22.70;99.90
19652;DHT22;9974;52.146;14.668;2022-08-03T21:20:13;22.90;99.90
19652;DHT22;9974;52.146;14.668;2022-08-03T21:22:42;22.70;99.90
19652;DHT22;9974;52.146;14.668;2022-08-03T21:25:13;22.80;99.90
19652;DHT22;9974;52.146;14.668;2022-08-03T21:27:39;22.60;99.90
19652;DHT22;9974;52.146;14.668;2022-08-03T21:30:07;22.80;99.90
19652;DHT22;9974;52.146;14.668;2022-08-03T21:32:34;22.80;99.90
19652;DHT22;9974;52.146;14.668;2022-08-03T21:35:06;22.70;99.90
19652;DHT22;9974;52.146;14.668;2022-08-03T21:44:52;22.50;99.90
19652;DHT22;9974;52.146;14.668;2022-08-03T21:47:20;22.50;99.90
19652;DHT22;9974;52.146;14.668;2022-08-03T21:49:48;22.50;99.90
19652;DHT22;9974;52.146;14.668;2022-08-03T21:52:19;22.40;99.90
19652;DHT22;9974;52.146;14.668;2022-08-03T21:54:48;22.40;99.90
19652;DHT22;9974;52.146;14.668;2022-08-03T21:57:22;22.40;99.90
19652;DHT22;9974;52.146;14.668;2022-08-03T21:59:59;22.10;99.90
19652;DHT22;9974;52.146;14.668;2022-08-03T22:02:31;22.10;99.90
19652;DHT22;9974;52.146;14.668;2022-08-03T22:07:26;22.00;99.90
19652;DHT22;9974;52.146;14.668;2022-08-03T22:09:57;22.00;99.90
19652;DHT22;9974;52.146;14.668;2022-08-03T22:12:26;21.80;99.90
19652;DHT22;9974;52.146;14.668;2022-08-03T22:14:55;21.90;99.90
19652;DHT22;9974;52.146;14.668;2022-08-03T22:19:52;21.80;99.90
19652;DHT22;9974;52.146;14.668;2022-08-03T22:22:22;21.80;99.90
19652;DHT22;9974;52.146;14.668;2022-08-03T22:24:55;21.40;99.90
19652;DHT22;9974;52.146;14.668;2022-08-03T22:27:24;21.60;99.90
19652;DHT22;9974;52.146;14.668;2022-08-03T22:30:04;21.30;99.90
19652;DHT22;9974;52.146;14.668;2022-08-03T22:32:37;21.70;99.90